Flight Track Log - Related Links

Times and Time Zones

All times are in EDT time to prevent confusion due to time zone crossing. See the VOZ1485 flight status page for this flight to view local times or setup timezone preferences in your user account.

Time Position Orientation Groundspeed Altitude Reporting Facility
EDT Latitude Longitude Course Direction KTS MPH feet Rate Location/Type
Wed 11:38:34 PM -31.9340 115.9630 196° South 1 1  Level FlightAware ADS-B
Wed 11:40:49 PM -31.9350 115.9640 140° Southeast 13 15 115 Level FlightAware ADS-B
Wed 11:41:03 PM -31.9360 115.9640 180° South 16 18 162 Level FlightAware ADS-B
Wed 11:41:23 PM -31.9380 115.9630 203° Southwest 20 23 169 Level FlightAware ADS-B
Wed 11:41:48 PM -31.9400 115.9630 180° South 23 26 180 Level FlightAware ADS-B
Wed 11:42:18 PM -31.9430 115.9620 196° South 13 15 196 Level FlightAware ADS-B
Wed 11:42:28 PM -31.9430 115.9610 270° West 13 15 220 Level FlightAware ADS-B
Wed 11:42:49 PM -31.9430 115.9600 270° West 13 15 230 Level FlightAware ADS-B
Wed 11:43:28 PM -31.9410 115.9590 337° Northwest 4 5 252 Level FlightAware ADS-B
Wed 11:45:34 PM -31.9410 115.9600 90° East 22 25 309 Level FlightAware ADS-B
Wed 11:46:03 PM -31.9320 115.9770 58° Northeast 159 183 1,102 Level FlightAware ADS-B
Wed 11:46:23 PM -31.9250 115.9910 60° Northeast 146 168 900 2,160 Climbing FlightAware ADS-B
Wed 11:46:53 PM -31.9130 116.0130 57° Northeast 169 194 1,800 1,418 Climbing FlightAware ADS-B
Wed 11:47:18 PM -31.9020 116.0360 61° Northeast 200 230 2,200 1,745 Climbing FlightAware ADS-B
Wed 11:47:48 PM -31.8880 116.0640 60° Northeast 206 237 3,400 1,964 Climbing FlightAware ADS-B
Wed 11:48:13 PM -31.8730 116.0930 59° Northeast 257 296 4,000 1,733 Climbing FlightAware ADS-B
Wed 11:48:33 PM -31.8610 116.1160 58° Northeast 269 310 4,700 2,667 Climbing FlightAware ADS-B
Wed 11:48:58 PM -31.8510 116.1540 73° East 283 326 6,000 3,055 Climbing FlightAware ADS-B
Wed 11:49:28 PM -31.8420 116.2000 77° East 294 338 7,500 2,780 Climbing FlightAware ADS-B
Wed 11:49:39 PM -31.8390 116.2160 78° East 299 344 7,900 2,700 Climbing FlightAware ADS-B
Wed 11:50:08 PM -31.8290 116.2620 76° East 308 354 9,300 2,522 Climbing FlightAware ADS-B
Wed 11:50:48 PM -31.8160 116.3310 78° East 328 377 10,800 2,400 Climbing FlightAware ADS-B
Wed 11:51:33 PM -31.8010 116.4100 77° East 338 389 12,700 2,471 Climbing FlightAware ADS-B
Wed 11:52:13 PM -31.7860 116.4830 76° East 353 406 14,300 2,143 Climbing FlightAware ADS-B
Wed 11:52:43 PM -31.7700 116.5370 71° East 351 404 15,200 1,886 Climbing FlightAware ADS-B
Wed 11:53:23 PM -31.7210 116.5870 41° Northeast 337 388 16,500 2,100 Climbing FlightAware ADS-B
Wed 11:54:03 PM -31.6620 116.6170 23° Northeast 350 403 18,000 2,118 Climbing FlightAware ADS-B
Wed 11:54:48 PM -31.5950 116.6520 24° Northeast 350 403 19,500 2,047 Climbing FlightAware ADS-B
Wed 11:55:28 PM -31.5340 116.6830 23° Northeast 358 412 20,900 1,976 Climbing FlightAware ADS-B
Wed 11:56:13 PM -31.4630 116.7200 24° Northeast 372 428 22,300 2,000 Climbing FlightAware ADS-B
Wed 11:56:43 PM -31.4183 116.7434 24° Northeast 372 428 23,400 1,800 Climbing Aus ATC (RADAR)
Wed 11:56:53 PM -31.4000 116.7530 24° Northeast 373 429 23,500 1,200 Climbing FlightAware ADS-B
Wed 11:57:38 PM -31.3260 116.7910 24° Northeast 387 445 24,500 1,412 Climbing FlightAware ADS-B
Wed 11:58:18 PM -31.2580 116.8260 24° Northeast 403 464 25,500 1,186 Climbing FlightAware ADS-B
Wed 11:59:04 PM -31.1800 116.8660 24° Northeast 418 481 26,200 1,129 Climbing FlightAware ADS-B
Wed 11:59:43 PM -31.1070 116.9040 24° Northeast 426 490 27,100 1,357 Climbing FlightAware ADS-B
Thu 12:00:28 AM -31.0260 116.9450 23° Northeast 423 487 28,100 1,129 Climbing FlightAware ADS-B
Thu 12:01:08 AM -30.9520 116.9830 24° Northeast 441 507 28,700 1,063 Climbing FlightAware ADS-B
Thu 12:01:47 AM -30.8800 117.0194 24° Northeast 446 513 29,500 900 Climbing Aus ATC (RADAR)
Thu 12:01:48 AM -30.8770 117.0220 24° Northeast 442 509 29,300 667 Descending FlightAware ADS-B
Thu 12:02:23 AM -30.8134 117.0537 24° Northeast 448 516 29,900 857 Climbing Aus ATC (RADAR)
Thu 12:02:23 AM -30.8090 117.0560 24° Northeast 456 525 29,800 667 Descending FlightAware ADS-B
Thu 12:03:08 AM -30.7210 117.1010 24° Northeast 459 528 30,400 918 Climbing FlightAware ADS-B
Thu 12:03:48 AM -30.6430 117.1410 24° Northeast 454 522 31,100 987 Climbing FlightAware ADS-B
Thu 12:04:27 AM -30.5690 117.1776 24° Northeast 462 532 31,700 800 Climbing Aus ATC (RADAR)
Thu 12:04:33 AM -30.5550 117.1850 24° Northeast 458 527 31,700 522 Level FlightAware ADS-B
Thu 12:05:13 AM -30.4750 117.2260 24° Northeast 462 532 32,100 892 Climbing FlightAware ADS-B
Thu 12:05:47 AM -30.4099 117.2577 24° Northeast 468 539 32,800 1,024 Climbing Aus ATC (RADAR)
Thu 12:05:54 AM -30.3980 117.2650 24° Northeast 459 528 32,800 913 Level FlightAware ADS-B
Thu 12:06:33 AM -30.3170 117.3060 24° Northeast 456 525 33,500 1,063 Climbing FlightAware ADS-B
Thu 12:07:13 AM -30.2410 117.3440 23° Northeast 457 526 34,200 900 Climbing FlightAware ADS-B
Thu 12:07:53 AM -30.1620 117.3840 24° Northeast 458 527 34,700 632 Climbing FlightAware ADS-B
Thu 12:08:29 AM -30.0990 117.4150 24° Northeast 458 527 35,000 769 Climbing FlightAware ADS-B
Thu 12:08:32 AM -30.0881 117.4193 24° Northeast 458 527 35,200  Climbing Aus ATC (RADAR)
Thu 12:09:17 AM -30.0050 117.4620 23° Northeast 472 543 35,000 -138 Descending FlightAware ADS-B
Thu 12:09:59 AM -29.9210 117.5040 23° Northeast 472 543 35,000  Level FlightAware ADS-B
Thu 12:10:40 AM -29.8390 117.5450 23° Northeast 475 547 35,000 82 Level FlightAware ADS-B
Thu 12:11:12 AM -29.7677 117.5795 23° Northeast 476 548 35,100  Climbing Aus ATC (RADAR)
Thu 12:11:21 AM -29.7560 117.5870 23° Northeast 475 547 35,000 -118 Descending FlightAware ADS-B
Thu 12:12:03 AM -29.6730 117.6280 23° Northeast 475 547 35,000  Level FlightAware ADS-B
Thu 12:12:36 AM -29.6020 117.6630 23° Northeast 475 547 35,000  Level FlightAware ADS-B
Thu 12:13:21 AM -29.5120 117.7080 24° Northeast 475 547 35,000 75 Level FlightAware ADS-B
Thu 12:13:56 AM -29.4350 117.7454 24° Northeast 475 547 35,100  Climbing Aus ATC (RADAR)
Thu 12:14:05 AM -29.4240 117.7520 24° Northeast 476 548 35,000  Descending FlightAware ADS-B
Thu 12:14:36 AM -29.3533 117.7840 24° Northeast 477 549 35,100  Climbing Aus ATC (RADAR)
Thu 12:14:36 AM -29.3610 117.7830 24° Northeast 471 542 35,000 -143 Descending FlightAware ADS-B
Thu 12:15:18 AM -29.2750 117.8250 24° Northeast 471 542 35,000 130 Level FlightAware ADS-B
Thu 12:15:22 AM -29.2604 117.8271 24° Northeast 481 554 35,100 158 Climbing Aus ATC (RADAR)
Thu 12:15:56 AM -29.1896 117.8628 24° Northeast 479 551 35,100 -113 Level Aus ATC (RADAR)
Thu 12:16:15 AM -29.1570 117.8830 24° Northeast 477 549 35,000 -92 Descending FlightAware ADS-B
Thu 12:17:01 AM -29.0640 117.9290 23° Northeast 470 541 35,000  Level FlightAware ADS-B
Thu 12:17:40 AM -28.9840 117.9680 23° Northeast 472 543 35,000 300 Level FlightAware ADS-B
Thu 12:17:41 AM -28.9762 117.9675 23° Northeast 481 554 35,200  Climbing Aus ATC (RADAR)
Thu 12:18:27 AM -28.9130 118.0030 23° Northeast 472 543 35,000 -140 Descending FlightAware ADS-B
Thu 12:19:07 AM -28.8220 118.0470 23° Northeast 473 544 35,000  Level FlightAware ADS-B
Thu 12:19:43 AM -28.7600 118.0770 23° Northeast 473 544 35,000  Level FlightAware ADS-B
Thu 12:20:19 AM -28.6990 118.1070 23° Northeast 473 544 35,000 316 Level FlightAware ADS-B
Thu 12:20:21 AM -28.6486 118.1277 23° Northeast 484 557 35,200  Climbing Aus ATC (RADAR)
Thu 12:21:07 AM -28.6170 118.1470 23° Northeast 473 544 35,000 -146 Descending FlightAware ADS-B
Thu 12:21:43 AM -28.5550 118.1760 22° Northeast 473 544 35,000  Level FlightAware ADS-B
Thu 12:22:16 AM -28.4980 118.2040 23° Northeast 473 544 35,000  Level FlightAware ADS-B
Thu 12:23:04 AM -28.4160 118.2430 23° Northeast 473 544 35,000 150 Level FlightAware ADS-B
Thu 12:23:36 AM -28.2450 118.3223 23° Northeast 486 559 35,200  Climbing Aus ATC (RADAR)
Thu 12:23:41 AM -28.3530 118.2740 23° Northeast 473 544 35,000 -222 Descending FlightAware ADS-B
Thu 12:24:30 AM -28.2690 118.3140 23° Northeast 473 544 35,000  Level FlightAware ADS-B
Thu 12:25:07 AM -28.2060 118.3450 23° Northeast 473 544 35,000  Level FlightAware ADS-B
Thu 12:25:48 AM -27.9504 118.4550 200° South 37,000  Climbing Aus ATC (Calculated)
Thu 12:25:55 AM -28.1230 118.3840 23° Northeast 473 544 35,000 -2,791 Descending FlightAware ADS-B
Thu 12:26:31 AM -28.0620 118.4140 23° Northeast 473 544 35,000  Level FlightAware ADS-B
Thu 12:27:06 AM -27.8018 118.5212 198° South 37,000  Climbing Aus ATC (Calculated)
Thu 12:27:31 AM -27.9590 118.4640 23° Northeast 473 544 35,000 -1,935 Descending FlightAware ADS-B
Thu 12:28:08 AM -27.8960 118.4940 23° Northeast 473 544 35,000 12 Level FlightAware ADS-B
Thu 12:29:15 AM -27.5417 118.6366 21° North 37,000 13 Climbing Aus ATC (Calculated)
Thu 12:30:43 AM -27.3466 118.7228 21° North 37,000 -124 Level Aus ATC (Calculated)
Thu 12:31:00 AM -27.3428 118.7244 21° North  Level FlightAware Approximate
Thu 12:32:00 AM -27.2007 118.7870 21° North  Level FlightAware Approximate
Thu 12:33:00 AM -27.0870 118.8370 21° North  Level FlightAware Approximate
Thu 12:34:00 AM -26.9732 118.8868 21° North  Level FlightAware Approximate
Thu 12:35:00 AM -26.8595 118.9365 21° North  Level FlightAware Approximate
Thu 12:35:27 AM -26.7036 119.0038 21° North 37,000  Level Aus ATC (Calculated)
Thu 12:37:00 AM -26.8805 118.9286 201° Southwest  Level FlightAware Approximate
Thu 12:38:00 AM -26.7664 118.9772 21° North  Level FlightAware Approximate
Thu 12:39:00 AM -26.6522 119.0257 21° North  Level FlightAware Approximate
Thu 12:40:00 AM -26.6881 119.0104 21° North  Level FlightAware Approximate
Thu 12:40:27 AM -26.0729 119.2701 21° North 37,000  Level Aus ATC (Calculated)
Thu 12:42:00 AM -25.8959 119.3443 21° North  Level FlightAware Approximate
Thu 12:43:00 AM -25.7816 119.3920 21° North  Level FlightAware Approximate
Thu 12:43:44 AM -25.7359 119.4142 21° North 477 549 35,200  Level Aus ATC (RADAR)
Thu 12:44:44 AM -25.6129 119.4646 20° North 472 543 35,200  Level Aus ATC (RADAR)
Thu 12:46:13 AM -25.4289 119.5407 20° North 471 542 35,200  Level Aus ATC (RADAR)
Thu 12:47:04 AM -25.3259 119.5836 21° North 471 542 35,200  Level Aus ATC (RADAR)
Thu 12:47:58 AM -25.2135 119.6296 20° North 470 541 35,200  Level Aus ATC (RADAR)
Thu 12:48:38 AM -25.1314 119.6633 20° North 472 543 35,200  Level Aus ATC (RADAR)
Thu 12:49:38 AM -25.0075 119.7146 21° North 474 545 35,200  Level Aus ATC (RADAR)
Thu 12:50:38 AM -24.8823 119.7665 21° North 477 549 35,200  Level Aus ATC (RADAR)
Thu 12:51:13 AM -24.8099 119.7956 20° North 476 548 35,200  Level Aus ATC (RADAR)
Thu 12:52:03 AM -24.7072 119.8372 20° North 471 542 35,200  Level Aus ATC (RADAR)
Thu 12:52:48 AM -24.6116 119.8771 21° North 483 556 35,200  Level Aus ATC (RADAR)
Thu 12:53:28 AM -24.5285 119.9108 20° North 480 552 35,200  Level Aus ATC (RADAR)
Thu 12:54:18 AM -24.4252 119.9528 20° North 477 549 35,200  Level Aus ATC (RADAR)
Thu 12:55:43 AM -24.2474 120.0252 20° North 480 552 35,200  Level Aus ATC (RADAR)
Thu 12:56:48 AM -24.1114 120.0805 20° North 480 552 35,200  Level Aus ATC (RADAR)
Thu 12:57:37 AM -24.0053 120.1234 20° North 486 559 35,200  Level Aus ATC (RADAR)
Thu 12:58:12 AM -23.9334 120.1527 20° North 478 550 35,200 360 Level Aus ATC (RADAR)
Thu 12:59:17 AM -23.7974 120.2078 20° North 479 551 35,800 686 Climbing Aus ATC (RADAR)
Thu 12:59:57 AM -23.7126 120.2418 20° North 479 551 36,400 686 Climbing Aus ATC (RADAR)
Thu 01:01:02 AM -23.5764 120.2968 20° North 480 552 37,000 400 Climbing Aus ATC (RADAR)
Thu 01:01:57 AM -23.4625 120.3429 20° North 479 551 37,200 120 Climbing Aus ATC (RADAR)
Thu 01:02:42 AM -23.3676 120.3808 20° North 478 550 37,200  Level Aus ATC (RADAR)
Thu 01:03:22 AM -23.2847 120.4142 20° North 476 548 37,200  Level Aus ATC (RADAR)
Thu 01:04:07 AM -23.1890 120.4519 20° North 482 555 37,200  Level Aus ATC (RADAR)
Thu 01:05:02 AM -23.0743 120.4977 20° North 479 551 37,200  Level Aus ATC (RADAR)
Thu 01:05:52 AM -22.9708 120.5393 20° North 476 548 37,200  Level Aus ATC (RADAR)
Thu 01:06:22 AM -22.9074 120.5641 20° North 479 551 37,200  Level Aus ATC (RADAR)
Thu 01:06:57 AM -22.8345 120.5931 20° North 476 548 37,200  Level Aus ATC (RADAR)
Thu 01:07:37 AM -22.7520 120.6263 20° North 475 547 37,200  Level Aus ATC (RADAR)
Thu 01:08:17 AM -22.6685 120.6593 20° North 477 549 37,200  Level Aus ATC (RADAR)
Thu 01:09:12 AM -22.5549 120.7046 20° North 475 547 37,200  Level Aus ATC (RADAR)
Thu 01:10:02 AM -22.4505 120.7455 20° North 476 548 37,200  Level Aus ATC (RADAR)
Thu 01:10:56 AM -22.3363 120.7904 20° North 475 547 37,200  Level Aus ATC (RADAR)
Thu 01:12:02 AM -22.1998 120.8431 20° North 477 549 37,200  Level Aus ATC (RADAR)
Thu 01:12:46 AM -22.1081 120.8800 20° North 470 541 37,200  Level Aus ATC (RADAR)
Thu 01:13:21 AM -22.0363 120.9083 20° North 468 539 37,200  Level Aus ATC (RADAR)
Thu 01:14:06 AM -21.9430 120.9444 20° North 470 541 37,200  Level Aus ATC (RADAR)
Thu 01:14:36 AM -21.8817 120.9687 20° North 470 541 37,200  Level Aus ATC (RADAR)
Thu 01:15:11 AM -21.8090 120.9967 20° North 470 541 37,200  Level Aus ATC (RADAR)
Thu 01:16:51 AM -21.6030 121.0770 20° North 470 541 37,200  Level Aus ATC (RADAR)
Thu 01:17:46 AM -21.4881 121.1208 20° North 473 544 37,200  Level Aus ATC (RADAR)
Thu 01:18:21 AM -21.4158 121.1488 20° North 472 543 37,200  Level Aus ATC (RADAR)
Thu 01:18:56 AM -21.3441 121.1767 20° North 469 540 37,200  Level Aus ATC (RADAR)
Thu 01:19:26 AM -21.2828 121.2001 20° North 469 540 37,200  Level Aus ATC (RADAR)
Thu 01:21:38 AM -20.9760 121.3190 20° North 37,000 -91 Descending Aus ATC (Calculated)
Thu 01:23:00 AM -20.8190 121.3796 20° North  Level FlightAware Approximate
Thu 01:24:00 AM -20.7042 121.4239 20° North  Level FlightAware Approximate
Thu 01:25:00 AM -20.5893 121.4681 20° North  Level FlightAware Approximate
Thu 01:26:00 AM -20.4744 121.5122 20° North  Level FlightAware Approximate
Thu 01:26:22 AM -20.4005 121.5406 180° South 37,000  Level Aus ATC (Calculated)
Thu 01:26:38 AM -20.4005 121.5406 20° North 37,000  Level Aus ATC (Calculated)
Thu 01:27:08 AM -20.3141 121.5737 20° North 37,000  Level Aus ATC (Calculated)
Thu 01:29:00 AM -20.0979 121.6564 20° North  Level FlightAware Approximate
Thu 01:29:31 AM -20.0211 121.6856 20° North 9,300  Level Aus ATC (Calculated)
Thu 01:30:08 AM -19.9716 121.7044 20° North 9,300  Level Aus ATC (Calculated)
Thu 01:30:35 AM -19.9237 121.7226 260° West 9,300  Level Aus ATC (Calculated)
Thu 01:30:35 AM -19.9237 121.7226 200° South 9,300  Level Aus ATC (Calculated)
Thu 01:32:00 AM -20.0879 121.6603 200° South  Level FlightAware Approximate
Thu 01:32:26 AM -19.7380 121.7932 20° North 9,300  Level Aus ATC (Calculated)
Thu 01:33:23 AM -19.6568 121.8240 20° North 9,300  Level Aus ATC (Calculated)
Thu 01:34:48 AM -19.5045 121.8818 20° North 9,300  Level Aus ATC (Calculated)
Thu 01:35:25 AM -19.4378 121.9070 200° South 9,300  Level Aus ATC (Calculated)
Thu 01:37:00 AM -19.6214 121.8376 200° South  Level FlightAware Approximate
Thu 01:38:00 AM -19.7373 121.7936 200° South  Level FlightAware Approximate
Thu 01:38:25 AM -19.0628 122.0486 North 9,300  Level Aus ATC (Calculated)
Thu 01:40:00 AM -18.8703 122.0803 20° North  Level Estimated
Thu 01:40:21 AM -18.8284 122.1367 20° North 9,300  Level Aus ATC (Calculated)
Thu 01:41:25 AM -18.6818 122.1917 20° North 9,300  Level Aus ATC (Calculated)
Thu 01:43:00 AM -18.4982 122.2604 20° North  Level FlightAware Approximate
Thu 01:44:00 AM -18.3822 122.3037 20° North  Level FlightAware Approximate
Thu 01:44:25 AM -18.3147 122.2711 360° North 500  Level Aus ATC (Calculated)
Thu 01:44:30 AM -18.3147 122.2711 175° South 500  Level Aus ATC (Calculated)
Thu 01:46:00 AM -18.4985 122.2891 175° South  Level FlightAware Approximate
Thu 01:47:00 AM -18.3760 122.2771 355° North  Level FlightAware Approximate
Thu 01:47:51 AM -18.0691 122.2472 175° South 500  Level Aus ATC (Calculated)
Thu 01:48:00 AM -18.4985 122.2891 175° South  Level FlightAware Approximate
Thu 01:49:00 AM -17.9447 122.2317 175° South  Level Estimated
Thu 01:49:54 AM -17.9463 122.2353 295° West 500  Level Aus ATC (Calculated)
Thu 01:50:00 AM -17.9447 122.2317 174° South  Level Estimated
Thu 01:51:00 AM -17.9447 122.2317 175° South  Level Estimated
Thu 01:52:00 AM -17.9447 122.2317 174° South  Level Estimated
Thu 01:53:00 AM -17.9447 122.2317 174° South  Level Estimated
Thu 01:54:00 AM -17.9447 122.2317 174° South  Level Estimated
Thu 01:55:00 AM -17.9447 122.2317 355° North  Level Estimated
Thu 01:56:00 AM -17.9447 122.2317 115° Southeast  Level Estimated
Thu 01:57:00 AM -17.9447 122.2317 115° Southeast  Level Estimated
Thu 01:58:00 AM -17.9447 122.2317 115° Southeast  Level Estimated
Thu 01:59:00 AM -17.9496 122.2277 245° Southwest  Level FlightAware Approximate
Thu 02:00:00 AM -17.9447 122.2317 245° Southwest  Level Estimated
Thu 02:01:00 AM -17.9496 122.2277 245° Southwest  Level FlightAware Approximate
Thu 02:02:00 AM -17.9447 122.2317 245° Southwest  Level Estimated
Thu 02:03:00 AM -17.9496 122.2277 245° Southwest  Level FlightAware Approximate
Thu 02:04:00 AM -17.9447 122.2317 245° Southwest  Level Estimated
Thu 02:05:00 AM -17.9496 122.2277 245° Southwest  Level FlightAware Approximate
Thu 02:06:00 AM -17.9447 122.2317 245° Southwest  Level Estimated
Thu 02:07:00 AM -17.9496 122.2277 245° Southwest  Level FlightAware Approximate

Login

Don't have an account? Register now (free) for customized features, flight alerts, and more!